createdAt,value
2023-03-26T00:05:28.928Z,100565.25
2023-03-26T00:15:50.925Z,100560.28
2023-03-26T00:26:12.855Z,100575.97
2023-03-26T00:36:36.031Z,100588.00
2023-03-26T00:46:57.700Z,100596.56
2023-03-26T00:57:34.574Z,100592.03
2023-03-26T01:07:57.534Z,100595.50
2023-03-26T01:18:22.066Z,100596.19
2023-03-26T01:28:43.593Z,100600.41
2023-03-26T01:39:18.624Z,100600.50
2023-03-26T01:49:40.342Z,100604.97
2023-03-26T02:00:12.043Z,100600.59
2023-03-26T02:10:41.394Z,100592.03
2023-03-26T02:21:05.402Z,100583.50
2023-03-26T02:31:27.330Z,100586.94
2023-03-26T02:41:48.918Z,100579.25
2023-03-26T02:52:10.887Z,100575.09
2023-03-26T03:02:32.427Z,100563.34
2023-03-26T03:12:54.281Z,100564.53
2023-03-26T03:23:16.078Z,100576.66
2023-03-26T03:33:37.605Z,100580.28
2023-03-26T03:44:01.467Z,100574.38
2023-03-26T03:54:23.081Z,100570.22
2023-03-26T04:04:46.314Z,100571.25
2023-03-26T04:15:07.994Z,100571.34
2023-03-26T04:25:30.430Z,100560.22
2023-03-26T04:35:52.085Z,100555.13
2023-03-26T04:46:14.273Z,100556.16
2023-03-26T04:56:51.339Z,100555.28
2023-03-26T05:07:17.565Z,100551.78
2023-03-26T05:17:41.656Z,100549.16
2023-03-26T05:28:03.881Z,100556.06
2023-03-26T05:38:25.496Z,100557.91
2023-03-26T05:48:47.196Z,100560.34
2023-03-26T05:59:08.858Z,100567.13
2023-03-26T06:09:30.345Z,100563.00
2023-03-26T06:19:51.826Z,100557.69
2023-03-26T06:30:13.578Z,100552.41
2023-03-26T06:40:35.308Z,100565.50
2023-03-26T06:50:56.841Z,100567.19
2023-03-26T07:01:18.393Z,100571.31
2023-03-26T07:11:39.922Z,100575.75
2023-03-26T07:22:01.992Z,100561.81
2023-03-26T07:32:29.140Z,100564.56
2023-03-26T07:43:08.869Z,100566.38
2023-03-26T07:53:30.566Z,100559.41
2023-03-26T08:04:29.717Z,100552.28
2023-03-26T08:15:32.459Z,100554.72
2023-03-26T08:25:56.970Z,100555.38
2023-03-26T08:36:18.476Z,100557.75
2023-03-26T08:46:58.193Z,100556.81
2023-03-26T08:57:44.459Z,100566.13
2023-03-26T09:08:08.910Z,100556.53
2023-03-26T09:18:48.726Z,100558.69
2023-03-26T09:29:33.041Z,100561.09
2023-03-26T09:40:20.250Z,100553.75
2023-03-26T09:51:11.117Z,100563.75
2023-03-26T10:01:52.397Z,100569.06
2023-03-26T10:12:24.474Z,100577.22
2023-03-26T10:23:18.580Z,100565.13
2023-03-26T10:34:00.181Z,100563.97
2023-03-26T10:44:59.446Z,100568.88
2023-03-26T10:55:35.205Z,100578.22
2023-03-26T11:06:33.661Z,100582.16
2023-03-26T11:17:14.552Z,100582.41
2023-03-26T11:28:25.701Z,100583.75
2023-03-26T11:38:50.490Z,100575.09
2023-03-26T11:49:17.760Z,100573.72
2023-03-26T11:59:57.650Z,100579.31
2023-03-26T12:10:24.639Z,100579.16
2023-03-26T12:20:46.180Z,100575.03
2023-03-26T12:31:18.014Z,100575.81
2023-03-26T12:44:42.702Z,100576.06
2023-03-26T12:52:52.973Z,100575.47
2023-03-26T13:03:31.165Z,100570.94
2023-03-26T13:14:11.085Z,100580.59
2023-03-26T13:24:32.555Z,100593.31
2023-03-26T13:35:07.985Z,100591.88
2023-03-26T13:46:06.484Z,100591.91
2023-03-26T13:56:36.955Z,100599.78
2023-03-26T14:07:09.797Z,100611.03
2023-03-26T14:17:50.262Z,100613.53
2023-03-26T14:28:46.851Z,100614.31
2023-03-26T14:39:43.905Z,100635.78
2023-03-26T14:50:46.532Z,100642.03
2023-03-26T15:01:40.280Z,100640.63
2023-03-26T15:12:33.199Z,100643.63
2023-03-26T15:23:03.577Z,100661.94
2023-03-26T15:34:12.667Z,100666.31
2023-03-26T15:44:53.195Z,100679.44
2023-03-26T15:55:15.703Z,100696.84
2023-03-26T16:06:11.582Z,100712.69
2023-03-26T16:16:52.879Z,100705.50
2023-03-26T16:27:14.289Z,100736.91
2023-03-26T16:37:38.031Z,100746.69
2023-03-26T16:48:16.420Z,100756.41
2023-03-26T16:58:37.893Z,100768.72
2023-03-26T17:09:13.157Z,100790.53
2023-03-26T17:19:39.427Z,100803.09
2023-03-26T17:30:21.062Z,100812.13
2023-03-26T17:41:02.958Z,100836.56
2023-03-26T17:51:24.292Z,100853.22
2023-03-26T18:01:47.743Z,100859.44
2023-03-26T18:12:12.129Z,100882.84
2023-03-26T18:22:33.546Z,100895.97
2023-03-26T18:33:02.444Z,100919.31
2023-03-26T18:43:34.453Z,100925.44
2023-03-26T18:53:58.332Z,100945.34
2023-03-26T19:04:19.810Z,100948.06
2023-03-26T19:14:53.499Z,100958.50
2023-03-26T19:25:22.676Z,100965.47
2023-03-26T19:35:46.058Z,100973.28
2023-03-26T19:46:12.862Z,100973.41
2023-03-26T19:56:34.367Z,100987.16
2023-03-26T20:06:55.930Z,101009.50
2023-03-26T20:17:19.181Z,101017.28
2023-03-26T20:27:40.542Z,101025.06
2023-03-26T20:38:01.900Z,101041.38
2023-03-26T20:48:25.267Z,101062.88
2023-03-26T20:59:09.726Z,101079.13
2023-03-26T21:09:34.133Z,101083.47
2023-03-26T21:19:55.715Z,101098.09
2023-03-26T21:30:17.600Z,101121.16
2023-03-26T21:40:44.489Z,101127.19
2023-03-26T21:51:10.325Z,101148.63
2023-03-26T22:01:57.989Z,101157.16
2023-03-26T22:12:19.353Z,101172.59
2023-03-26T22:22:48.755Z,101189.72
2023-03-26T22:33:12.022Z,101202.56
2023-03-26T22:43:33.393Z,101215.44
2023-03-26T22:53:54.732Z,101232.53
2023-03-26T23:04:31.646Z,101249.66
2023-03-26T23:14:53.687Z,101261.63
2023-03-26T23:25:15.708Z,101277.91
2023-03-26T23:35:37.086Z,101280.44
2023-03-26T23:45:59.435Z,101292.41
2023-03-26T23:56:21.215Z,101312.09
